Terminal Aerodrome Forecast
Issued by NWS

Home | Current Version | Previous Version | Text Only | Print | Product List | Glossary On
Versions: 1 2 3 4 5 6 7 8 9 10 11 12 13 14
000
FTUS46 KLOX 201100 RRA
TAFPMD
TAF
KPMD 201148Z 2012/2112 VRB04KT P6SM SCT150
     FM202000 29012KT P6SM SCT150
     FM210600 23006KT P6SM SCT150=

USA.gov is the U.S. government's official web portal to all federal, state and local government web resources and services.